Time;durP1;ratioP1;P1;durP2;ratioP2;P2;SDS_P1;SDS_P2;PMS_P1;PMS_P2;Temp;Humidity;BMP_temperature;BMP_pressure;BME280_temperature;BME280_humidity;BME280_pressure;Samples;Min_cycle;Max_cycle;Signal;HPM_P1;HPM_P2
2021/08/20 00:01:16;;;;;;;5.05;1.58;;;;;;;14.26;82.15;100372.81;8406132;34;20942;-73
2021/08/20 00:06:20;;;;;;;2.97;1.98;;;;;;;14.14;82.17;100376.69;8407808;34;20191;-73
2021/08/20 00:11:23;;;;;;;5.53;2.22;;;;;;;14.09;82.08;100385.22;8405513;34;20432;-73
2021/08/20 00:16:27;;;;;;;1.98;1.40;;;;;;;14.06;82.59;100384.66;8409034;34;20505;-73
2021/08/20 00:21:31;;;;;;;1.50;1.40;;;;;;;14.04;82.71;100386.66;8419919;34;21294;-73
2021/08/20 00:26:35;;;;;;;18.98;2.42;;;;;;;14.09;82.49;100381.66;8409573;34;20233;-73
2021/08/20 00:31:38;;;;;;;2.10;1.60;;;;;;;14.13;82.61;100370.44;8406750;34;20545;-73
2021/08/20 00:36:42;;;;;;;3.53;2.83;;;;;;;14.25;82.61;100370.25;8406567;34;20142;-73
2021/08/20 00:41:47;;;;;;;1.38;0.70;;;;;;;14.34;82.41;100364.81;8408489;34;20504;-73
2021/08/20 00:46:50;;;;;;;1.80;1.65;;;;;;;14.33;81.81;100365.78;8408626;34;20255;-73
2021/08/20 00:51:55;;;;;;;2.97;2.20;;;;;;;14.32;81.68;100365.97;8410100;34;20905;-73
2021/08/20 00:56:58;;;;;;;30.63;15.65;;;;;;;14.31;81.96;100372.34;8416465;34;20130;-73
2021/08/20 01:02:03;;;;;;;28.35;15.57;;;;;;;14.33;81.71;100356.84;8414720;34;21008;-73
2021/08/20 01:07:08;;;;;;;34.50;17.20;;;;;;;14.23;81.46;100364.97;8412915;34;20176;-73
2021/08/20 01:12:12;;;;;;;27.35;15.02;;;;;;;14.07;81.47;100362.06;8411846;34;20143;-73
2021/08/20 01:17:16;;;;;;;28.67;15.80;;;;;;;13.94;81.96;100357.84;8414690;34;20621;-73
2021/08/20 01:22:20;;;;;;;27.50;15.02;;;;;;;13.82;82.20;100361.72;8416267;34;20715;-73
2021/08/20 01:27:25;;;;;;;37.17;15.35;;;;;;;13.77;82.18;100363.13;8414055;34;20639;-73
2021/08/20 01:32:28;;;;;;;27.20;14.00;;;;;;;13.71;82.58;100359.16;8412841;34;20510;-74
2021/08/20 01:37:32;;;;;;;31.33;14.82;;;;;;;13.74;82.80;100358.91;8413353;34;20422;-73
2021/08/20 01:42:39;;;;;;;27.65;15.20;;;;;;;13.74;82.41;100358.03;8413467;34;20178;-74
2021/08/20 01:47:43;;;;;;;28.60;16.02;;;;;;;13.70;82.61;100363.72;8412645;34;20446;-74
2021/08/20 01:52:46;;;;;;;29.67;15.90;;;;;;;13.73;82.62;100357.19;8417096;34;20150;-74
2021/08/20 01:57:51;;;;;;;29.70;15.23;;;;;;;13.70;82.60;100360.19;8425293;34;20436;-74
2021/08/20 02:02:54;;;;;;;33.28;16.02;;;;;;;13.77;82.71;100355.91;8426126;34;20446;-73
2021/08/20 02:08:00;;;;;;;28.92;15.45;;;;;;;13.69;82.79;100359.34;8429437;34;20204;-73
2021/08/20 02:13:05;;;;;;;29.10;16.35;;;;;;;13.80;82.17;100350.22;8431702;34;20296;-73
2021/08/20 02:18:09;;;;;;;30.42;16.60;;;;;;;13.77;82.59;100355.03;8431489;34;20557;-74
2021/08/20 02:23:12;;;;;;;30.38;15.77;;;;;;;13.80;82.53;100354.78;8431152;34;20181;-74
2021/08/20 02:28:21;;;;;;;29.40;15.38;;;;;;;13.73;82.48;100350.94;8430966;34;20143;-73
2021/08/20 02:33:24;;;;;;;28.27;15.20;;;;;;;13.77;81.74;100342.41;8431328;34;20402;-74
2021/08/20 02:38:30;;;;;;;28.95;15.77;;;;;;;13.75;82.20;100351.66;8432300;34;20166;-73
2021/08/20 02:43:35;;;;;;;30.00;14.70;;;;;;;13.70;82.05;100357.47;8432022;34;20523;-74
2021/08/20 02:48:38;;;;;;;31.50;15.07;;;;;;;13.64;82.53;100350.81;8432612;34;20612;-73
2021/08/20 02:53:46;;;;;;;29.83;15.02;;;;;;;13.78;81.97;100345.97;8431656;34;20441;-73
2021/08/20 02:58:50;;;;;;;28.73;15.25;;;;;;;13.79;81.41;100344.94;8430141;34;20165;-74
2021/08/20 03:03:55;;;;;;;29.85;15.27;;;;;;;13.77;80.79;100352.34;8433558;34;20431;-74
2021/08/20 03:09:02;;;;;;;30.98;16.27;;;;;;;13.73;81.25;100350.94;8429277;34;20390;-74
2021/08/20 03:14:09;;;;;;;29.73;15.07;;;;;;;13.78;81.12;100340.56;8416315;34;20932;-73
2021/08/20 03:19:15;;;;;;;25.40;14.27;;;;;;;13.80;81.02;100349.38;8416400;34;20603;-73
2021/08/20 03:24:19;;;;;;;28.02;14.88;;;;;;;13.82;80.59;100342.81;8415110;34;20877;-73
2021/08/20 03:29:24;;;;;;;28.27;14.52;;;;;;;13.86;80.67;100346.91;8416771;34;21045;-73
2021/08/20 03:34:41;;;;;;;24.40;13.70;;;;;;;13.89;80.58;100348.47;8411745;34;20145;-74
2021/08/20 03:39:45;;;;;;;26.35;14.55;;;;;;;13.85;80.27;100356.03;8411870;34;20155;-74
2021/08/20 03:44:54;;;;;;;24.67;14.38;;;;;;;13.92;79.99;100361.69;8413948;34;20420;-74
2021/08/20 03:49:57;;;;;;;30.13;15.90;;;;;;;13.93;79.80;100357.97;8420898;34;20521;-74
2021/08/20 03:55:01;;;;;;;25.88;14.65;;;;;;;13.98;79.81;100357.53;8425157;34;20490;-74
2021/08/20 04:00:11;;;;;;;27.60;14.30;;;;;;;13.98;79.22;100358.38;8417341;34;21020;-73
2021/08/20 04:05:23;;;;;;;26.33;14.57;;;;;;;14.00;79.22;100360.97;8413127;34;20432;-73
2021/08/20 04:10:31;;;;;;;30.20;15.82;;;;;;;13.99;79.35;100370.03;8414100;34;20230;-73
2021/08/20 04:15:49;;;;;;;24.85;14.02;;;;;;;13.95;79.55;100369.50;8408634;34;20428;-73
2021/08/20 04:20:53;;;;;;;25.83;14.32;;;;;;;13.95;79.31;100372.19;8406417;34;20450;-73
2021/08/20 04:25:56;;;;;;;23.40;13.50;;;;;;;13.94;79.37;100376.75;8406306;34;20423;-74
2021/08/20 04:31:21;;;;;;;26.97;13.87;;;;;;;13.96;78.95;100390.13;8408280;34;20434;-74
2021/08/20 04:36:56;;;;;;;24.13;13.55;;;;;;;13.93;78.61;100379.56;8492521;27;20171;-74
2021/08/20 04:42:25;;;;;;;25.17;13.52;;;;;;;13.97;78.46;100388.25;8516299;33;20459;-76
2021/08/20 04:47:45;;;;;;;24.48;13.75;;;;;;;14.02;78.05;100397.63;8469127;34;20307;-76
2021/08/20 04:53:09;;;;;;;26.85;13.80;;;;;;;14.04;77.78;100397.47;8468197;33;20159;-75
2021/08/20 04:58:21;;;;;;;23.33;14.45;;;;;;;14.07;77.61;100402.56;8483690;33;20633;-75
2021/08/20 05:03:26;;;;;;;25.50;14.27;;;;;;;14.04;77.67;100411.84;8486962;34;20448;-76
2021/08/20 05:08:30;;;;;;;24.40;13.73;;;;;;;14.12;77.87;100408.38;8481943;33;20141;-74
2021/08/20 05:13:33;;;;;;;25.63;13.98;;;;;;;14.16;77.79;100405.25;8474045;34;20273;-76
2021/08/20 05:18:38;;;;;;;23.05;13.48;;;;;;;14.11;77.79;100414.78;8467689;33;20573;-76
2021/08/20 05:23:41;;;;;;;25.65;14.95;;;;;;;14.01;77.39;100412.09;8468255;33;20181;-76
2021/08/20 05:28:44;;;;;;;24.40;14.05;;;;;;;13.98;77.90;100412.41;8467981;33;20137;-76
2021/08/20 05:33:48;;;;;;;26.23;14.57;;;;;;;13.94;78.09;100419.94;8489837;33;20141;-76
2021/08/20 05:38:51;;;;;;;23.63;13.30;;;;;;;13.97;78.33;100431.47;8467755;34;21086;-76
2021/08/20 05:43:54;;;;;;;28.15;14.80;;;;;;;13.97;78.56;100424.22;8468808;33;20514;-76
2021/08/20 05:49:03;;;;;;;26.95;15.45;;;;;;;13.93;78.89;100426.34;8480173;34;20409;-76
2021/08/20 05:54:06;;;;;;;27.83;15.20;;;;;;;14.11;78.48;100439.09;8481852;33;20252;-76
2021/08/20 05:59:10;;;;;;;26.95;15.25;;;;;;;14.14;78.59;100438.81;8485027;33;20231;-76
2021/08/20 06:04:14;;;;;;;27.17;15.55;;;;;;;14.20;78.12;100448.16;8488105;33;20290;-75
2021/08/20 06:09:18;;;;;;;30.73;16.48;;;;;;;14.43;77.82;100457.69;8487937;34;20430;-74
2021/08/20 06:14:21;;;;;;;30.75;17.45;;;;;;;14.42;77.12;100455.94;8486281;34;20153;-76
2021/08/20 06:19:27;;;;;;;28.85;15.90;;;;;;;14.43;76.75;100456.81;8480165;34;20143;-76
2021/08/20 06:24:30;;;;;;;32.80;17.60;;;;;;;14.54;76.20;100452.09;8431562;34;20569;-75
2021/08/20 06:29:33;;;;;;;29.90;17.98;;;;;;;14.96;75.27;100454.28;8401660;34;20706;-76
2021/08/20 06:34:37;;;;;;;31.25;18.17;;;;;;;15.14;74.45;100450.75;8374524;34;20185;-76
2021/08/20 06:39:40;;;;;;;34.30;19.95;;;;;;;15.42;73.75;100449.75;8364215;34;20965;-76
2021/08/20 06:44:43;;;;;;;29.17;17.98;;;;;;;15.52;72.11;100452.34;8361092;34;21291;-76
2021/08/20 06:49:50;;;;;;;28.65;16.80;;;;;;;15.22;72.73;100442.72;8363071;34;20548;-76
2021/08/20 06:54:58;;;;;;;28.10;17.00;;;;;;;14.83;73.61;100449.22;8359861;34;20181;-75
2021/08/20 07:00:01;;;;;;;27.75;16.65;;;;;;;14.66;74.85;100446.47;8358916;34;20438;-76
2021/08/20 07:05:07;;;;;;;30.48;17.20;;;;;;;14.93;73.44;100460.00;8357436;34;20445;-75
2021/08/20 07:10:14;;;;;;;28.05;16.70;;;;;;;15.24;71.93;100460.50;8358699;34;21090;-76
2021/08/20 07:15:17;;;;;;;23.60;15.60;;;;;;;15.75;70.60;100452.75;8359922;34;20524;-76
2021/08/20 07:20:21;;;;;;;26.88;16.38;;;;;;;16.24;69.20;100458.53;8359934;34;20524;-76
2021/08/20 07:25:24;;;;;;;23.13;14.65;;;;;;;15.97;69.14;100462.22;8360607;34;20548;-76
2021/08/20 07:30:28;;;;;;;27.08;16.02;;;;;;;16.00;69.59;100466.50;8373478;34;20530;-76
2021/08/20 07:35:32;;;;;;;26.23;15.93;;;;;;;15.58;69.41;100475.28;8368784;34;20675;-75
2021/08/20 07:40:35;;;;;;;28.00;16.92;;;;;;;16.00;69.19;100483.59;8358978;34;20347;-76
2021/08/20 07:45:38;;;;;;;25.13;16.67;;;;;;;16.08;67.71;100480.94;8359896;34;20979;-75
2021/08/20 07:50:47;;;;;;;23.88;17.17;;;;;;;16.25;68.03;100481.91;8359996;34;20538;-76
2021/08/20 07:55:50;;;;;;;22.05;14.70;;;;;;;15.81;68.78;100486.47;8367764;34;20140;-73
2021/08/20 08:00:53;;;;;;;24.70;16.08;;;;;;;16.31;67.85;100485.88;8358481;34;20652;-75
2021/08/20 08:05:57;;;;;;;22.35;14.77;;;;;;;17.19;65.14;100486.47;8373492;34;20956;-74
2021/08/20 08:11:01;;;;;;;19.02;13.48;;;;;;;17.24;64.02;100491.44;8408110;34;20426;-75
2021/08/20 08:16:04;;;;;;;21.80;13.65;;;;;;;17.01;64.65;100486.56;8389966;34;20934;-76
2021/08/20 08:21:09;;;;;;;21.92;12.48;;;;;;;16.97;64.75;100496.03;8389364;34;20970;-74
2021/08/20 08:26:12;;;;;;;22.00;13.27;;;;;;;17.80;63.46;100498.00;8356337;34;20710;-75
2021/08/20 08:31:15;;;;;;;19.83;12.55;;;;;;;17.49;61.71;100511.34;8357391;34;20189;-76
2021/08/20 08:36:19;;;;;;;15.88;11.20;;;;;;;17.93;60.99;100508.34;8351568;34;20157;-76
2021/08/20 08:41:41;;;;;;;19.98;13.38;;;;;;;17.14;63.08;100534.13;8348211;34;21014;-74
2021/08/20 08:46:45;;;;;;;16.52;11.63;;;;;;;16.57;64.37;100530.09;8343723;34;20582;-75
2021/08/20 08:51:50;;;;;;;18.77;12.73;;;;;;;17.22;63.26;100518.75;8375699;34;20146;-74
2021/08/20 08:56:53;;;;;;;18.35;12.68;;;;;;;17.74;60.51;100511.38;8355226;34;20410;-75
2021/08/20 09:01:56;;;;;;;18.95;13.05;;;;;;;17.93;60.76;100520.03;8354707;34;21052;-75
2021/08/20 09:07:01;;;;;;;16.60;12.70;;;;;;;18.80;58.92;100514.06;8354502;34;20143;-73
2021/08/20 09:12:09;;;;;;;16.63;12.15;;;;;;;19.30;56.03;100525.59;8349415;34;20451;-74
2021/08/20 09:17:12;;;;;;;15.20;11.20;;;;;;;19.62;56.59;100521.84;8347772;34;20269;-76
2021/08/20 09:22:16;;;;;;;15.00;11.05;;;;;;;19.08;56.36;100532.66;8354776;34;20438;-76
2021/08/20 09:27:27;;;;;;;15.32;12.30;;;;;;;18.86;57.42;100526.09;8365226;34;20520;-76
2021/08/20 09:32:31;;;;;;;14.40;11.20;;;;;;;19.34;56.98;100522.34;8372241;34;20506;-76
2021/08/20 09:37:35;;;;;;;13.75;10.15;;;;;;;19.05;56.29;100533.88;8392173;34;20146;-75
2021/08/20 09:42:39;;;;;;;16.20;10.98;;;;;;;18.84;58.06;100528.16;8423979;34;20575;-75
2021/08/20 09:47:44;;;;;;;13.30;10.48;;;;;;;19.84;54.88;100522.91;8429511;34;20233;-76
2021/08/20 09:52:50;;;;;;;11.05;9.35;;;;;;;20.08;53.92;100530.88;8431490;34;20995;-75
2021/08/20 09:57:53;;;;;;;10.90;9.38;;;;;;;20.18;54.63;100532.50;8431280;34;20999;-76
2021/08/20 10:02:57;;;;;;;12.93;8.55;;;;;;;19.71;53.77;100528.94;8426462;34;20158;-75
2021/08/20 10:08:02;;;;;;;14.63;9.55;;;;;;;20.02;54.35;100528.91;8424490;34;20435;-76
2021/08/20 10:13:06;;;;;;;12.73;9.38;;;;;;;20.24;53.59;100524.44;8418697;34;20419;-76
2021/08/20 10:18:12;;;;;;;17.42;10.15;;;;;;;20.16;53.96;100516.34;8416758;34;20566;-76
2021/08/20 10:23:17;;;;;;;10.98;7.70;;;;;;;19.91;53.83;100534.75;8381085;34;20479;-75
2021/08/20 10:28:21;;;;;;;11.05;7.85;;;;;;;19.66;54.36;100537.69;8364064;34;20441;-75
2021/08/20 10:33:33;;;;;;;11.15;9.38;;;;;;;18.78;57.16;100538.72;8383998;28;21714;-71
2021/08/20 10:38:45;;;;;;;11.25;8.40;;;;;;;19.40;55.93;100528.94;8459233;33;20480;-71
2021/08/20 10:43:58;;;;;;;12.73;8.88;;;;;;;19.10;56.87;100547.78;8469848;33;20461;-73
2021/08/20 10:49:21;;;;;;;12.10;9.75;;;;;;;19.02;57.46;100543.22;8471785;33;20440;-72
2021/08/20 10:55:09;;;;;;;11.88;10.05;;;;;;;18.71;59.22;100539.56;8472470;33;20173;-72
2021/08/20 11:00:25;;;;;;;15.35;10.30;;;;;;;18.56;60.00;100534.81;8471432;33;20224;-72
2021/08/20 11:05:50;;;;;;;16.50;10.77;;;;;;;18.59;60.24;100555.38;8470729;33;20599;-72
2021/08/20 11:10:55;;;;;;;15.63;11.68;;;;;;;18.72;61.05;100549.41;8470897;33;20146;-72
2021/08/20 11:15:59;;;;;;;15.25;11.60;;;;;;;18.84;62.09;100555.38;8470194;33;20423;-72
2021/08/20 11:21:02;;;;;;;12.68;8.93;;;;;;;18.83;60.41;100561.84;8470486;33;20430;-72
2021/08/20 11:26:29;;;;;;;15.07;9.10;;;;;;;19.19;58.29;100573.13;8471103;33;20495;-72
2021/08/20 11:31:32;;;;;;;15.93;9.55;;;;;;;18.86;59.70;100578.66;8471257;34;21008;-72
2021/08/20 11:36:41;;;;;;;14.35;8.27;;;;;;;19.14;58.76;100570.94;8467739;33;20184;-72
2021/08/20 11:41:48;;;;;;;12.10;8.32;;;;;;;19.55;57.95;100573.44;8473870;33;20465;-73
2021/08/20 11:46:52;;;;;;;11.57;8.48;;;;;;;19.40;58.94;100572.53;8475182;33;20492;-73
2021/08/20 11:52:05;;;;;;;16.55;11.40;;;;;;;19.77;57.94;100577.28;8470918;34;20984;-73
2021/08/20 11:57:09;;;;;;;16.70;10.43;;;;;;;20.93;55.74;100559.75;8470021;33;20304;-72
2021/08/20 12:02:19;;;;;;;22.25;10.00;;;;;;;21.39;53.92;100554.09;8467942;33;20541;-72
2021/08/20 12:07:37;;;;;;;11.10;7.53;;;;;;;21.68;52.74;100553.16;8467666;33;20422;-72
2021/08/20 12:12:44;;;;;;;12.20;7.78;;;;;;;21.43;53.13;100557.28;8465546;33;20404;-72
2021/08/20 12:17:47;;;;;;;12.35;7.65;;;;;;;22.42;51.21;100556.63;8467229;33;20230;-72
2021/08/20 12:22:51;;;;;;;11.10;6.40;;;;;;;21.77;52.05;100559.38;8467877;33;20523;-72
2021/08/20 12:27:56;;;;;;;7.82;4.95;;;;;;;21.52;51.82;100567.06;8467122;33;20243;-73
2021/08/20 12:33:00;;;;;;;8.88;5.15;;;;;;;21.00;54.15;100565.28;8468365;33;20516;-73
2021/08/20 12:38:11;;;;;;;10.68;5.32;;;;;;;20.77;55.31;100565.38;8469525;33;20530;-73
2021/08/20 12:43:26;;;;;;;6.97;4.80;;;;;;;20.70;54.89;100561.69;8447577;33;20535;-73
2021/08/20 12:48:29;;;;;;;9.75;5.38;;;;;;;20.33;56.20;100561.56;8414415;34;20306;-73
2021/08/20 12:53:35;;;;;;;9.73;6.10;;;;;;;19.71;57.71;100564.38;8420368;34;20190;-71
2021/08/20 12:58:40;;;;;;;10.07;6.13;;;;;;;19.79;58.30;100571.66;8409886;34;20421;-72
2021/08/20 13:03:43;;;;;;;12.45;6.95;;;;;;;20.17;57.96;100552.63;8411836;34;20257;-72
2021/08/20 13:08:46;;;;;;;11.52;6.63;;;;;;;20.99;55.95;100552.69;8407409;34;20423;-72
2021/08/20 13:13:52;;;;;;;10.10;6.20;;;;;;;20.84;55.19;100562.75;8406006;34;20506;-72
2021/08/20 13:18:55;;;;;;;10.07;6.22;;;;;;;20.71;56.12;100566.16;8405886;34;20233;-72
2021/08/20 13:23:58;;;;;;;13.20;7.10;;;;;;;21.23;54.84;100546.97;8408920;34;20667;-72
2021/08/20 13:29:02;;;;;;;10.68;6.50;;;;;;;21.93;52.95;100560.19;8410469;34;20192;-72
2021/08/20 13:34:05;;;;;;;10.10;5.70;;;;;;;21.33;53.89;100549.38;8416641;34;20447;-72
2021/08/20 13:39:08;;;;;;;9.68;6.30;;;;;;;22.22;52.58;100557.31;8412186;34;20578;-71
2021/08/20 13:44:13;;;;;;;11.43;6.70;;;;;;;21.92;52.68;100542.09;8411767;34;21166;-72
2021/08/20 13:49:18;;;;;;;12.20;6.80;;;;;;;22.01;53.37;100539.00;8411078;34;20735;-72
2021/08/20 13:54:21;;;;;;;12.63;8.00;;;;;;;21.56;54.16;100538.31;8410534;34;20157;-72
2021/08/20 13:59:26;;;;;;;12.52;7.03;;;;;;;21.35;53.87;100533.66;8411254;34;20232;-72
2021/08/20 14:04:29;;;;;;;17.65;7.40;;;;;;;22.57;50.72;100530.03;8410565;34;20858;-72
2021/08/20 14:09:33;;;;;;;9.20;6.53;;;;;;;22.01;51.42;100539.00;8408709;34;20216;-73
2021/08/20 14:14:37;;;;;;;13.88;7.30;;;;;;;22.68;50.58;100547.78;8404116;34;20245;-72
2021/08/20 14:19:40;;;;;;;10.65;6.40;;;;;;;22.65;50.17;100542.72;8403250;34;20537;-72
2021/08/20 14:24:43;;;;;;;11.15;6.50;;;;;;;22.49;51.04;100550.19;8400559;34;20441;-72
2021/08/20 14:29:47;;;;;;;10.23;7.00;;;;;;;22.30;50.97;100542.66;8399979;34;20513;-72
2021/08/20 14:34:50;;;;;;;10.20;5.55;;;;;;;22.81;48.74;100544.31;8400425;34;20419;-72
2021/08/20 14:39:53;;;;;;;8.13;5.35;;;;;;;22.73;50.41;100543.41;8403765;34;20425;-72
2021/08/20 14:44:59;;;;;;;8.38;5.20;;;;;;;23.08;49.33;100542.56;8410487;34;20539;-73
2021/08/20 14:50:03;;;;;;;8.40;5.50;;;;;;;23.47;48.76;100549.28;8408439;34;20977;-72
2021/08/20 14:55:08;;;;;;;6.70;5.07;;;;;;;23.25;48.76;100541.19;8405965;34;20133;-72
2021/08/20 15:00:15;;;;;;;9.43;6.28;;;;;;;23.34;47.87;100542.72;8404461;34;20446;-72
2021/08/20 15:05:18;;;;;;;8.60;5.97;;;;;;;22.81;49.29;100542.41;8405058;34;20198;-72
2021/08/20 15:10:23;;;;;;;10.65;6.95;;;;;;;22.20;50.86;100553.06;8409852;34;20149;-72
2021/08/20 15:15:27;;;;;;;12.07;7.07;;;;;;;21.75;51.45;100549.66;8407858;34;20141;-72
2021/08/20 15:20:30;;;;;;;9.57;6.72;;;;;;;22.44;50.15;100555.44;8408333;34;20241;-72
2021/08/20 15:25:37;;;;;;;11.52;7.93;;;;;;;22.87;48.43;100551.69;8403648;34;20141;-72
2021/08/20 15:30:42;;;;;;;11.02;7.03;;;;;;;24.10;46.80;100553.47;8407834;34;20714;-72
2021/08/20 15:35:45;;;;;;;13.57;7.38;;;;;;;24.17;45.59;100560.88;8404831;34;20417;-72
2021/08/20 15:40:48;;;;;;;12.25;7.28;;;;;;;24.21;46.08;100553.91;8403448;34;21084;-72
2021/08/20 15:45:53;;;;;;;10.63;7.25;;;;;;;23.92;46.46;100558.75;8410874;34;21239;-73
2021/08/20 15:50:56;;;;;;;8.43;6.57;;;;;;;23.48;47.42;100562.81;8415194;34;20192;-73
2021/08/20 15:55:59;;;;;;;8.77;6.60;;;;;;;23.66;48.20;100567.69;8410793;34;20681;-73
2021/08/20 16:01:03;;;;;;;10.88;6.72;;;;;;;23.98;46.71;100555.16;8405668;34;20721;-73
2021/08/20 16:06:07;;;;;;;11.13;7.35;;;;;;;22.78;49.57;100551.88;8405889;34;20130;-73
2021/08/20 16:11:10;;;;;;;11.18;8.23;;;;;;;22.42;50.78;100553.91;8413828;34;20297;-72
2021/08/20 16:16:14;;;;;;;10.80;7.72;;;;;;;21.76;52.08;100546.75;8416414;34;20186;-73
2021/08/20 16:21:19;;;;;;;11.13;7.20;;;;;;;21.44;52.91;100550.78;8419412;34;20520;-73
2021/08/20 16:26:22;;;;;;;10.88;8.18;;;;;;;21.33;53.52;100538.44;8414097;34;20221;-73
2021/08/20 16:31:26;;;;;;;11.30;7.63;;;;;;;21.45;53.58;100542.41;8415405;34;20673;-72
2021/08/20 16:36:30;;;;;;;11.13;8.15;;;;;;;21.87;52.76;100535.31;8465043;28;20538;-73
2021/08/20 16:41:33;;;;;;;10.52;8.43;;;;;;;22.66;51.32;100539.78;8413913;34;20528;-73
2021/08/20 16:46:39;;;;;;;14.75;10.32;;;;;;;23.49;49.23;100534.34;8410099;34;20575;-73
2021/08/20 16:51:47;;;;;;;15.80;12.30;;;;;;;23.31;48.93;100543.13;8408973;34;20518;-73
2021/08/20 16:56:50;;;;;;;17.23;12.38;;;;;;;22.96;49.53;100543.13;8412278;34;20778;-73
2021/08/20 17:01:54;;;;;;;19.00;12.73;;;;;;;22.35;50.61;100545.63;8412892;34;20773;-73
2021/08/20 17:06:59;;;;;;;16.15;11.40;;;;;;;21.81;52.90;100551.66;8413435;34;20825;-73
2021/08/20 17:12:03;;;;;;;16.40;11.18;;;;;;;21.10;53.41;100551.41;8413023;34;20453;-73
2021/08/20 17:17:10;;;;;;;17.52;12.10;;;;;;;20.88;55.64;100548.53;8413436;34;20525;-73
2021/08/20 17:22:14;;;;;;;16.30;12.68;;;;;;;20.50;56.62;100558.66;8408846;34;20472;-73
2021/08/20 17:27:17;;;;;;;15.55;11.52;;;;;;;20.69;56.28;100544.47;8406669;34;21003;-72
2021/08/20 17:32:21;;;;;;;15.90;11.52;;;;;;;20.57;57.12;100548.72;8407547;34;20240;-72
2021/08/20 17:37:24;;;;;;;14.48;10.90;;;;;;;20.84;56.60;100560.84;8412773;34;20569;-73
2021/08/20 17:42:27;;;;;;;13.60;11.40;;;;;;;21.00;55.47;100552.47;8414733;34;20475;-73
2021/08/20 17:47:32;;;;;;;13.93;10.47;;;;;;;20.54;56.70;100546.34;8412902;34;20475;-73
2021/08/20 17:52:35;;;;;;;13.57;9.73;;;;;;;20.39;57.39;100554.50;8412321;34;20322;-73
2021/08/20 17:57:38;;;;;;;15.25;10.60;;;;;;;20.32;58.10;100565.31;8412932;34;20197;-73
2021/08/20 18:02:42;;;;;;;12.95;10.38;;;;;;;20.22;58.56;100566.56;8414506;34;20495;-73
2021/08/20 18:07:45;;;;;;;12.07;9.50;;;;;;;19.99;58.94;100563.84;8408565;34;20527;-73
2021/08/20 18:12:48;;;;;;;11.82;9.10;;;;;;;19.78;59.72;100568.09;8409505;34;20596;-74
2021/08/20 18:17:53;;;;;;;11.45;8.30;;;;;;;19.53;60.41;100577.38;8418599;34;20436;-73
2021/08/20 18:22:57;;;;;;;10.10;7.43;;;;;;;19.48;60.22;100572.47;8420055;34;20422;-73
2021/08/20 18:28:00;;;;;;;7.63;6.55;;;;;;;19.45;60.71;100584.59;8417732;34;20421;-72
2021/08/20 18:33:05;;;;;;;7.88;6.82;;;;;;;19.41;60.60;100587.81;8414300;34;20430;-73
2021/08/20 18:38:09;;;;;;;9.13;6.65;;;;;;;19.40;60.48;100586.97;8414471;34;20990;-72
2021/08/20 18:43:13;;;;;;;8.23;6.63;;;;;;;19.38;60.76;100601.81;8412418;34;20934;-72
2021/08/20 18:48:17;;;;;;;7.50;6.43;;;;;;;19.33;60.91;100605.03;8410404;34;20208;-72
2021/08/20 18:53:20;;;;;;;8.93;6.78;;;;;;;19.37;60.76;100605.56;8411168;34;20465;-72
2021/08/20 18:58:23;;;;;;;5.80;5.30;;;;;;;19.32;60.89;100602.53;8405506;34;20501;-73
2021/08/20 19:03:28;;;;;;;5.80;5.20;;;;;;;19.24;61.53;100615.13;8404400;34;20522;-73
2021/08/20 19:08:31;;;;;;;7.50;6.45;;;;;;;19.20;61.51;100615.69;8403889;34;20212;-73
2021/08/20 19:13:34;;;;;;;8.70;5.80;;;;;;;19.14;61.84;100624.53;8404531;34;20241;-73
2021/08/20 19:18:38;;;;;;;6.47;5.55;;;;;;;18.93;62.61;100627.81;8404591;34;20186;-73
2021/08/20 19:23:41;;;;;;;6.00;5.03;;;;;;;18.88;63.52;100643.81;8409670;34;20414;-73
2021/08/20 19:28:44;;;;;;;6.95;5.43;;;;;;;18.75;63.83;100628.81;8414254;34;20904;-73
2021/08/20 19:33:49;;;;;;;8.05;5.13;;;;;;;18.79;63.79;100638.38;8415493;34;20474;-73
2021/08/20 19:38:52;;;;;;;7.32;6.25;;;;;;;18.72;64.85;100640.06;8414927;34;20138;-73
2021/08/20 19:43:55;;;;;;;10.32;8.65;;;;;;;18.68;65.46;100640.59;8412945;34;20147;-73
2021/08/20 19:49:00;;;;;;;13.38;10.10;;;;;;;18.74;65.75;100646.19;8420066;34;20988;-73
2021/08/20 19:54:03;;;;;;;13.68;10.80;;;;;;;18.74;65.41;100654.34;8427899;34;20248;-72
2021/08/20 19:59:06;;;;;;;10.82;9.10;;;;;;;18.67;65.54;100650.59;8415846;34;20688;-72
2021/08/20 20:04:10;;;;;;;11.75;8.88;;;;;;;18.61;65.82;100648.56;8414394;34;20443;-73
2021/08/20 20:09:14;;;;;;;9.35;8.38;;;;;;;18.58;66.68;100646.19;8410891;34;20454;-73
2021/08/20 20:14:17;;;;;;;8.93;8.02;;;;;;;18.48;67.25;100653.66;8409016;34;20616;-73
2021/08/20 20:19:22;;;;;;;12.50;8.77;;;;;;;18.31;67.66;100661.81;8408084;34;20154;-73
2021/08/20 20:24:25;;;;;;;10.02;9.02;;;;;;;18.32;67.97;100639.06;8408199;34;20151;-73
2021/08/20 20:29:28;;;;;;;11.30;9.63;;;;;;;18.39;67.71;100655.53;8406123;34;20337;-73
2021/08/20 20:34:32;;;;;;;10.13;8.88;;;;;;;18.34;67.58;100663.34;8406108;34;20626;-73
2021/08/20 20:39:36;;;;;;;12.20;10.35;;;;;;;18.42;67.71;100662.50;8406204;34;20467;-73
2021/08/20 20:44:39;;;;;;;12.90;9.32;;;;;;;18.34;67.47;100666.06;8404600;34;20151;-73
2021/08/20 20:49:43;;;;;;;11.68;10.48;;;;;;;18.37;67.57;100665.72;8406805;34;20293;-73
2021/08/20 20:54:46;;;;;;;10.50;8.98;;;;;;;18.39;66.87;100660.13;8407244;34;20979;-72
2021/08/20 20:59:49;;;;;;;10.05;8.13;;;;;;;18.35;66.94;100665.91;8408328;34;20658;-72
2021/08/20 21:04:54;;;;;;;10.02;8.25;;;;;;;18.27;66.88;100671.34;8405945;34;20422;-72
2021/08/20 21:09:57;;;;;;;9.50;7.95;;;;;;;18.19;67.70;100665.88;8401892;34;20177;-72
2021/08/20 21:15:00;;;;;;;10.10;7.63;;;;;;;18.04;69.74;100676.53;8405305;34;20165;-72
2021/08/20 21:20:07;;;;;;;13.55;9.73;;;;;;;17.98;70.12;100673.66;8403912;34;20570;-72
2021/08/20 21:25:11;;;;;;;16.20;10.45;;;;;;;18.01;70.22;100676.03;8454775;34;20197;-72
2021/08/20 21:30:15;;;;;;;14.68;10.00;;;;;;;18.04;69.96;100678.41;8480180;33;20193;-72
2021/08/20 21:35:19;;;;;;;12.15;9.35;;;;;;;17.98;70.62;100668.22;8479435;33;20142;-72
2021/08/20 21:40:22;;;;;;;13.57;10.30;;;;;;;17.96;70.89;100678.34;8478776;33;20373;-72
2021/08/20 21:45:25;;;;;;;12.32;9.57;;;;;;;17.98;70.59;100685.38;8467674;34;20471;-72
2021/08/20 21:50:30;;;;;;;13.82;10.30;;;;;;;17.99;71.03;100686.22;8462881;33;20497;-72
2021/08/20 21:55:33;;;;;;;14.77;10.00;;;;;;;17.87;71.51;100691.06;8461780;33;20235;-72
2021/08/20 22:00:36;;;;;;;14.63;10.85;;;;;;;17.81;71.69;100692.59;8461504;33;20650;-72
2021/08/20 22:05:44;;;;;;;14.32;10.85;;;;;;;17.81;71.74;100697.19;8460968;33;20413;-72
2021/08/20 22:10:47;;;;;;;13.38;10.40;;;;;;;17.82;71.79;100694.28;8461117;33;20193;-72
2021/08/20 22:15:50;;;;;;;13.48;9.57;;;;;;;17.81;72.04;100689.03;8455995;33;20924;-72
2021/08/20 22:20:59;;;;;;;11.90;9.15;;;;;;;17.72;71.90;100692.69;8457147;33;20618;-72
2021/08/20 22:26:02;;;;;;;12.45;9.75;;;;;;;17.68;72.09;100684.03;8460015;33;20576;-72
2021/08/20 22:31:05;;;;;;;12.82;9.88;;;;;;;17.59;72.43;100693.19;8462284;33;20502;-72
2021/08/20 22:36:10;;;;;;;12.48;10.40;;;;;;;17.48;72.82;100697.03;8473073;28;21318;-72
2021/08/20 22:41:13;;;;;;;14.23;10.25;;;;;;;17.38;73.02;100691.69;8460747;34;20237;-72
2021/08/20 22:46:16;;;;;;;14.07;10.65;;;;;;;17.30;73.16;100701.66;8464506;33;20308;-71
2021/08/20 22:51:20;;;;;;;14.43;10.48;;;;;;;17.20;72.97;100707.22;8465627;33;20713;-73
2021/08/20 22:56:23;;;;;;;15.23;10.82;;;;;;;16.95;73.83;100717.88;8458626;33;20432;-73
2021/08/20 23:01:26;;;;;;;14.70;10.48;;;;;;;16.83;74.70;100716.41;8457685;33;20424;-73
2021/08/20 23:06:31;;;;;;;15.38;11.07;;;;;;;16.67;75.15;100717.13;8458770;33;20476;-72
2021/08/20 23:11:34;;;;;;;17.52;11.73;;;;;;;16.60;76.10;100718.75;8458236;33;20228;-72
2021/08/20 23:16:37;;;;;;;16.10;11.10;;;;;;;16.69;75.99;100715.09;8457640;33;20219;-71